Aviation Digital Data Service (ADDS)

Output produced by METARs form (0634 UTC 19 February 2019)
found at http://www.aviationweather.gov/metar/data/
 
METAR text: LIPZ 190620Z 01005KT 0100 R04R/0250N FZFG VV/// M00/M00 Q1022 NOSIG
Conditions at: LIPZ (VENEZIA/TESSERA , IT) observed 0620 UTC 19 February 2019
Temperature: 0.0°C (32°F)
Dewpoint: 0.0°C (32°F) [RH = 100%]
Pressure (altimeter): 30.18 inches Hg (1022.0 mb)
Winds: from the N (10 degrees) at 6 MPH (5 knots; 2.6 m/s)
Visibility: 0.06 miles (0.10 km)
Ceiling: indefinite ceiling with vertical visibility of 0 feet AGL
Clouds: obscured sky
Weather: FZFG  (freezing fog)

METAR text: LIPZ 190550Z 36004KT 0200 R04R/0375N FZFG VV/// M00/M00 Q1022 NOSIG
Conditions at: LIPZ (VENEZIA/TESSERA , IT) observed 0550 UTC 19 February 2019
Temperature: 0.0°C (32°F)
Dewpoint: 0.0°C (32°F) [RH = 100%]
Pressure (altimeter): 30.18 inches Hg (1022.0 mb)
Winds: from the N (360 degrees) at 5 MPH (4 knots; 2.1 m/s)
Visibility: 0.12 miles (0.19 km)
Ceiling: indefinite ceiling with vertical visibility of 0 feet AGL
Clouds: obscured sky
Weather: FZFG  (freezing fog)

METAR text: LIPZ 190520Z 36004KT 0200 R04R/0325N FZFG VV/// M00/M00 Q1022 NOSIG
Conditions at: LIPZ (VENEZIA/TESSERA , IT) observed 0520 UTC 19 February 2019
Temperature: 0.0°C (32°F)
Dewpoint: 0.0°C (32°F) [RH = 100%]
Pressure (altimeter): 30.18 inches Hg (1022.0 mb)
Winds: from the N (360 degrees) at 5 MPH (4 knots; 2.1 m/s)
Visibility: 0.12 miles (0.19 km)
Ceiling: indefinite ceiling with vertical visibility of 0 feet AGL
Clouds: obscured sky
Weather: FZFG  (freezing fog)

METAR text: LIPZ 190450Z 01005KT 0200 R04R/0350N FZFG NSC M01/M01 Q1022 NOSIG
Conditions at: LIPZ (VENEZIA/TESSERA , IT) observed 0450 UTC 19 February 2019
Temperature: -1.0°C (30°F)
Dewpoint: -1.0°C (30°F) [RH = 100%]
Pressure (altimeter): 30.18 inches Hg (1022.0 mb)
Winds: from the N (10 degrees) at 6 MPH (5 knots; 2.6 m/s)
Visibility: 0.12 miles (0.19 km)
Ceiling: at least 12,000 feet AGL
Clouds: sky clear below 12,000 feet AGL
Weather: FZFG  (freezing fog)

METAR text: LIPZ 190420Z 02005KT 0300 R04R/0400N FZFG NSC M01/M01 Q1022 NOSIG
Conditions at: LIPZ (VENEZIA/TESSERA , IT) observed 0420 UTC 19 February 2019
Temperature: -1.0°C (30°F)
Dewpoint: -1.0°C (30°F) [RH = 100%]
Pressure (altimeter): 30.18 inches Hg (1022.0 mb)
Winds: from the NNE (20 degrees) at 6 MPH (5 knots; 2.6 m/s)
Visibility: 0.19 miles (0.31 km)
Ceiling: at least 12,000 feet AGL
Clouds: sky clear below 12,000 feet AGL
Weather: FZFG  (freezing fog)

METAR text: LIPZ 190320Z 02006KT 0200 R04R/0325N FZFG NSC M01/M01 Q1022 NOSIG
Conditions at: LIPZ (VENEZIA/TESSERA , IT) observed 0320 UTC 19 February 2019
Temperature: -1.0°C (30°F)
Dewpoint: -1.0°C (30°F) [RH = 100%]
Pressure (altimeter): 30.18 inches Hg (1022.0 mb)
Winds: from the NNE (20 degrees) at 7 MPH (6 knots; 3.1 m/s)
Visibility: 0.12 miles (0.19 km)
Ceiling: at least 12,000 feet AGL
Clouds: sky clear below 12,000 feet AGL
Weather: FZFG  (freezing fog)

METAR text: LIPZ 190250Z 03005KT 0150 R04R/0225N FZFG NSC M00/M00 Q1022 NOSIG
Conditions at: LIPZ (VENEZIA/TESSERA , IT) observed 0250 UTC 19 February 2019
Temperature: 0.0°C (32°F)
Dewpoint: 0.0°C (32°F) [RH = 100%]
Pressure (altimeter): 30.18 inches Hg (1022.0 mb)
Winds: from the NNE (30 degrees) at 6 MPH (5 knots; 2.6 m/s)
Visibility: 0.09 miles (0.14 km)
Ceiling: at least 12,000 feet AGL
Clouds: sky clear below 12,000 feet AGL
Weather: FZFG  (freezing fog)

METAR text: LIPZ 190220Z 02004KT 0150 R04R/0175V0275N FZFG NSC M01/M01 Q1022 NOSIG
Conditions at: LIPZ (VENEZIA/TESSERA , IT) observed 0220 UTC 19 February 2019
Temperature: -1.0°C (30°F)
Dewpoint: -1.0°C (30°F) [RH = 100%]
Pressure (altimeter): 30.18 inches Hg (1022.0 mb)
Winds: from the NNE (20 degrees) at 5 MPH (4 knots; 2.1 m/s)
Visibility: 0.09 miles (0.14 km)
Ceiling: at least 12,000 feet AGL
Clouds: sky clear below 12,000 feet AGL
Weather: FZFG  (freezing fog)

METAR text: LIPZ 190150Z 02004KT 0300 R04R/0400N FZFG NSC M01/M01 Q1022 NOSIG
Conditions at: LIPZ (VENEZIA/TESSERA , IT) observed 0150 UTC 19 February 2019
Temperature: -1.0°C (30°F)
Dewpoint: -1.0°C (30°F) [RH = 100%]
Pressure (altimeter): 30.18 inches Hg (1022.0 mb)
Winds: from the NNE (20 degrees) at 5 MPH (4 knots; 2.1 m/s)
Visibility: 0.19 miles (0.31 km)
Ceiling: at least 12,000 feet AGL
Clouds: sky clear below 12,000 feet AGL
Weather: FZFG  (freezing fog)

METAR text: LIPZ 190120Z 02004KT 0300 R04R/0400N FZFG NSC M00/M00 Q1022 NOSIG
Conditions at: LIPZ (VENEZIA/TESSERA , IT) observed 0120 UTC 19 February 2019
Temperature: 0.0°C (32°F)
Dewpoint: 0.0°C (32°F) [RH = 100%]
Pressure (altimeter): 30.18 inches Hg (1022.0 mb)
Winds: from the NNE (20 degrees) at 5 MPH (4 knots; 2.1 m/s)
Visibility: 0.19 miles (0.31 km)
Ceiling: at least 12,000 feet AGL
Clouds: sky clear below 12,000 feet AGL
Weather: FZFG  (freezing fog)

METAR text: LIPZ 190050Z 04004KT 0400 R04R/P1500N FZFG NSC M01/M01 Q1022 NOSIG
Conditions at: LIPZ (VENEZIA/TESSERA , IT) observed 0050 UTC 19 February 2019
Temperature: -1.0°C (30°F)
Dewpoint: -1.0°C (30°F) [RH = 100%]
Pressure (altimeter): 30.18 inches Hg (1022.0 mb)
Winds: from the NE (40 degrees) at 5 MPH (4 knots; 2.1 m/s)
Visibility: 0.25 miles (0.40 km)
Ceiling: at least 12,000 feet AGL
Clouds: sky clear below 12,000 feet AGL
Weather: FZFG  (freezing fog)

METAR text: LIPZ 190020Z 04004KT 0150 R04R/0175N FZFG NSC M00/M00 Q1022 NOSIG
Conditions at: LIPZ (VENEZIA/TESSERA , IT) observed 0020 UTC 19 February 2019
Temperature: 0.0°C (32°F)
Dewpoint: 0.0°C (32°F) [RH = 100%]
Pressure (altimeter): 30.18 inches Hg (1022.0 mb)
Winds: from the NE (40 degrees) at 5 MPH (4 knots; 2.1 m/s)
Visibility: 0.09 miles (0.14 km)
Ceiling: at least 12,000 feet AGL
Clouds: sky clear below 12,000 feet AGL
Weather: FZFG  (freezing fog)

METAR text: LIPZ 182350Z 03003KT 0300 R04R/0300V0600D FG NSC 00/00 Q1022 NOSIG
Conditions at: LIPZ (VENEZIA/TESSERA , IT) observed 2350 UTC 18 February 2019
Temperature: 0.0°C (32°F)
Dewpoint: 0.0°C (32°F) [RH = 100%]
Pressure (altimeter): 30.18 inches Hg (1022.0 mb)
Winds: from the NNE (30 degrees) at 3 MPH (3 knots; 1.5 m/s)
Visibility: 0.19 miles (0.31 km)
Ceiling: at least 12,000 feet AGL
Clouds: sky clear below 12,000 feet AGL
Weather: FG  (fog)

METAR text: LIPZ 182320Z VRB01KT 0200 R04R/0300N FG NSC 00/00 Q1022 NOSIG
Conditions at: LIPZ (VENEZIA/TESSERA , IT) observed 2320 UTC 18 February 2019
Temperature: 0.0°C (32°F)
Dewpoint: 0.0°C (32°F) [RH = 100%]
Pressure (altimeter): 30.18 inches Hg (1022.0 mb)
Winds: variable direction winds at 1 MPH (1 knots; 0.5 m/s)
Visibility: 0.12 miles (0.19 km)
Ceiling: at least 12,000 feet AGL
Clouds: sky clear below 12,000 feet AGL
Weather: FG  (fog)

METAR text: LIPZ 182250Z VRB02KT 0300 R04R/0300N FG NSC 00/00 Q1022 NOSIG
Conditions at: LIPZ (VENEZIA/TESSERA , IT) observed 2250 UTC 18 February 2019
Temperature: 0.0°C (32°F)
Dewpoint: 0.0°C (32°F) [RH = 100%]
Pressure (altimeter): 30.18 inches Hg (1022.0 mb)
Winds: variable direction winds at 2 MPH (2 knots; 1.0 m/s)
Visibility: 0.19 miles (0.31 km)
Ceiling: at least 12,000 feet AGL
Clouds: sky clear below 12,000 feet AGL
Weather: FG  (fog)

METAR text: LIPZ 182220Z 03002KT 0150 R04R/0225N FG NSC 01/01 Q1022 NOSIG
Conditions at: LIPZ (VENEZIA/TESSERA , IT) observed 2220 UTC 18 February 2019
Temperature: 1.0°C (34°F)
Dewpoint: 1.0°C (34°F) [RH = 100%]
Pressure (altimeter): 30.18 inches Hg (1022.0 mb)
Winds: from the NNE (30 degrees) at 2 MPH (2 knots; 1.0 m/s)
Visibility: 0.09 miles (0.14 km)
Ceiling: at least 12,000 feet AGL
Clouds: sky clear below 12,000 feet AGL
Weather: FG  (fog)

METAR text: LIPZ 182150Z 04002KT 0100 R04R/0200N FG OVC001 02/02 Q1022 NOSIG
Conditions at: LIPZ (VENEZIA/TESSERA , IT) observed 2150 UTC 18 February 2019
Temperature: 2.0°C (36°F)
Dewpoint: 2.0°C (36°F) [RH = 100%]
Pressure (altimeter): 30.18 inches Hg (1022.0 mb)
Winds: from the NE (40 degrees) at 2 MPH (2 knots; 1.0 m/s)
Visibility: 0.06 miles (0.10 km)
Ceiling: 100 feet AGL
Clouds: overcast cloud deck at 100 feet AGL
Weather: FG  (fog)

METAR text: LIPZ 182120Z VRB01KT 0100 R04R/0200N FG OVC001 03/03 Q1023 NOSIG
Conditions at: LIPZ (VENEZIA/TESSERA , IT) observed 2120 UTC 18 February 2019
Temperature: 3.0°C (37°F)
Dewpoint: 3.0°C (37°F) [RH = 100%]
Pressure (altimeter): 30.21 inches Hg (1023.0 mb)
Winds: variable direction winds at 1 MPH (1 knots; 0.5 m/s)
Visibility: 0.06 miles (0.10 km)
Ceiling: 100 feet AGL
Clouds: overcast cloud deck at 100 feet AGL
Weather: FG  (fog)

METAR text: LIPZ 182050Z VRB01KT 0050 R04R/0200N FG OVC001 03/03 Q1023 NOSIG
Conditions at: LIPZ (VENEZIA/TESSERA , IT) observed 2050 UTC 18 February 2019
Temperature: 3.0°C (37°F)
Dewpoint: 3.0°C (37°F) [RH = 100%]
Pressure (altimeter): 30.21 inches Hg (1023.0 mb)
Winds: variable direction winds at 1 MPH (1 knots; 0.5 m/s)
Visibility: 0.03 miles (0.05 km)
Ceiling: 100 feet AGL
Clouds: overcast cloud deck at 100 feet AGL
Weather: FG  (fog)

METAR text: LIPZ 182020Z 00000KT 0050 R04R/0175N FG OVC001 03/03 Q1022 NOSIG
Conditions at: LIPZ (VENEZIA/TESSERA , IT) observed 2020 UTC 18 February 2019
Temperature: 3.0°C (37°F)
Dewpoint: 3.0°C (37°F) [RH = 100%]
Pressure (altimeter): 30.18 inches Hg (1022.0 mb)
Winds: calm
Visibility: 0.03 miles (0.05 km)
Ceiling: 100 feet AGL
Clouds: overcast cloud deck at 100 feet AGL
Weather: FG  (fog)

METAR text: LIPZ 181950Z VRB01KT 0050 R04R/0175N FG OVC001 04/04 Q1022 NOSIG
Conditions at: LIPZ (VENEZIA/TESSERA , IT) observed 1950 UTC 18 February 2019
Temperature: 4.0°C (39°F)
Dewpoint: 4.0°C (39°F) [RH = 100%]
Pressure (altimeter): 30.18 inches Hg (1022.0 mb)
Winds: variable direction winds at 1 MPH (1 knots; 0.5 m/s)
Visibility: 0.03 miles (0.05 km)
Ceiling: 100 feet AGL
Clouds: overcast cloud deck at 100 feet AGL
Weather: FG  (fog)

METAR text: LIPZ 181920Z VRB02KT 0100 R04R/0150N FG OVC001 04/04 Q1022 NOSIG
Conditions at: LIPZ (VENEZIA/TESSERA , IT) observed 1920 UTC 18 February 2019
Temperature: 4.0°C (39°F)
Dewpoint: 4.0°C (39°F) [RH = 100%]
Pressure (altimeter): 30.18 inches Hg (1022.0 mb)
Winds: variable direction winds at 2 MPH (2 knots; 1.0 m/s)
Visibility: 0.06 miles (0.10 km)
Ceiling: 100 feet AGL
Clouds: overcast cloud deck at 100 feet AGL
Weather: FG  (fog)

METAR text: LIPZ 181850Z VRB02KT 0150 R04R/0150N FG OVC001 04/03 Q1022 NOSIG
Conditions at: LIPZ (VENEZIA/TESSERA , IT) observed 1850 UTC 18 February 2019
Temperature: 4.0°C (39°F)
Dewpoint: 3.0°C (37°F) [RH = 93%]
Pressure (altimeter): 30.18 inches Hg (1022.0 mb)
Winds: variable direction winds at 2 MPH (2 knots; 1.0 m/s)
Visibility: 0.09 miles (0.14 km)
Ceiling: 100 feet AGL
Clouds: overcast cloud deck at 100 feet AGL
Weather: FG  (fog)

METAR text: LIPZ 181820Z VRB02KT 0150 R04R/0200N FG OVC001 04/04 Q1022 NOSIG
Conditions at: LIPZ (VENEZIA/TESSERA , IT) observed 1820 UTC 18 February 2019
Temperature: 4.0°C (39°F)
Dewpoint: 4.0°C (39°F) [RH = 100%]
Pressure (altimeter): 30.18 inches Hg (1022.0 mb)
Winds: variable direction winds at 2 MPH (2 knots; 1.0 m/s)
Visibility: 0.09 miles (0.14 km)
Ceiling: 100 feet AGL
Clouds: overcast cloud deck at 100 feet AGL
Weather: FG  (fog)

METAR text: LIPZ 181750Z 11003KT 0150 R04R/0175N FG OVC001 04/04 Q1022 NOSIG
Conditions at: LIPZ (VENEZIA/TESSERA , IT) observed 1750 UTC 18 February 2019
Temperature: 4.0°C (39°F)
Dewpoint: 4.0°C (39°F) [RH = 100%]
Pressure (altimeter): 30.18 inches Hg (1022.0 mb)
Winds: from the ESE (110 degrees) at 3 MPH (3 knots; 1.5 m/s)
Visibility: 0.09 miles (0.14 km)
Ceiling: 100 feet AGL
Clouds: overcast cloud deck at 100 feet AGL
Weather: FG  (fog)

METAR text: LIPZ 181720Z 11003KT 0100 R04R/0175N FG OVC001 04/04 Q1022 NOSIG
Conditions at: LIPZ (VENEZIA/TESSERA , IT) observed 1720 UTC 18 February 2019
Temperature: 4.0°C (39°F)
Dewpoint: 4.0°C (39°F) [RH = 100%]
Pressure (altimeter): 30.18 inches Hg (1022.0 mb)
Winds: from the ESE (110 degrees) at 3 MPH (3 knots; 1.5 m/s)
Visibility: 0.06 miles (0.10 km)
Ceiling: 100 feet AGL
Clouds: overcast cloud deck at 100 feet AGL
Weather: FG  (fog)

METAR text: LIPZ 181650Z 13004KT 0100 R04R/0175N FG OVC001 05/05 Q1022 NOSIG
Conditions at: LIPZ (VENEZIA/TESSERA , IT) observed 1650 UTC 18 February 2019
Temperature: 5.0°C (41°F)
Dewpoint: 5.0°C (41°F) [RH = 100%]
Pressure (altimeter): 30.18 inches Hg (1022.0 mb)
Winds: from the SE (130 degrees) at 5 MPH (4 knots; 2.1 m/s)
Visibility: 0.06 miles (0.10 km)
Ceiling: 100 feet AGL
Clouds: overcast cloud deck at 100 feet AGL
Weather: FG  (fog)

METAR text: LIPZ 181620Z 14003KT 0100 R04R/0150N FG OVC001 05/05 Q1022 NOSIG
Conditions at: LIPZ (VENEZIA/TESSERA , IT) observed 1620 UTC 18 February 2019
Temperature: 5.0°C (41°F)
Dewpoint: 5.0°C (41°F) [RH = 100%]
Pressure (altimeter): 30.18 inches Hg (1022.0 mb)
Winds: from the SE (140 degrees) at 3 MPH (3 knots; 1.5 m/s)
Visibility: 0.06 miles (0.10 km)
Ceiling: 100 feet AGL
Clouds: overcast cloud deck at 100 feet AGL
Weather: FG  (fog)

METAR text: LIPZ 181550Z 13003KT 0400 R04R/0200D FG BKN001 06/05 Q1022 BECMG 0200 FG
Conditions at: LIPZ (VENEZIA/TESSERA , IT) observed 1550 UTC 18 February 2019
Temperature: 6.0°C (43°F)
Dewpoint: 5.0°C (41°F) [RH = 93%]
Pressure (altimeter): 30.18 inches Hg (1022.0 mb)
Winds: from the SE (130 degrees) at 3 MPH (3 knots; 1.5 m/s)
Visibility: 0.25 miles (0.40 km)
Ceiling: 100 feet AGL
Clouds: broken clouds at 100 feet AGL
Weather: FG  (fog)

METAR text: LIPZ 181520Z 13004KT 0400 R04R/1100VP1500D FG NSC 06/05 Q1022 BECMG 0200 FG
Conditions at: LIPZ (VENEZIA/TESSERA , IT) observed 1520 UTC 18 February 2019
Temperature: 6.0°C (43°F)
Dewpoint: 5.0°C (41°F) [RH = 93%]
Pressure (altimeter): 30.18 inches Hg (1022.0 mb)
Winds: from the SE (130 degrees) at 5 MPH (4 knots; 2.1 m/s)
Visibility: 0.25 miles (0.40 km)
Ceiling: at least 12,000 feet AGL
Clouds: sky clear below 12,000 feet AGL
Weather: FG  (fog)

METAR text: LIPZ 181450Z 14003KT 1500 0800NE BCFG BR NSC 08/06 Q1022 NOSIG
Conditions at: LIPZ (VENEZIA/TESSERA , IT) observed 1450 UTC 18 February 2019
Temperature: 8.0°C (46°F)
Dewpoint: 6.0°C (43°F) [RH = 87%]
Pressure (altimeter): 30.18 inches Hg (1022.0 mb)
Winds: from the SE (140 degrees) at 3 MPH (3 knots; 1.5 m/s)
Visibility: 0.93 miles (1.50 km)
Ceiling: at least 12,000 feet AGL
Clouds: sky clear below 12,000 feet AGL
Weather: BCFG BR  (patches of fog, mist)

METAR text: LIPZ 181420Z 15004KT 1400 1000NE R04R/P1500N BCFG BR FEW004 07/06 Q1022 NOSIG
Conditions at: LIPZ (VENEZIA/TESSERA , IT) observed 1420 UTC 18 February 2019
Temperature: 7.0°C (45°F)
Dewpoint: 6.0°C (43°F) [RH = 93%]
Pressure (altimeter): 30.18 inches Hg (1022.0 mb)
Winds: from the SSE (150 degrees) at 5 MPH (4 knots; 2.1 m/s)
Visibility: 0.87 miles (1.40 km)
Ceiling: at least 12,000 feet AGL
Clouds: few clouds at 400 feet AGL
Weather: BCFG BR  (patches of fog, mist)

METAR text: LIPZ 181350Z 14003KT 0300 R04R/P1500N FG SCT002 07/06 Q1023 NOSIG
Conditions at: LIPZ (VENEZIA/TESSERA , IT) observed 1350 UTC 18 February 2019
Temperature: 7.0°C (45°F)
Dewpoint: 6.0°C (43°F) [RH = 93%]
Pressure (altimeter): 30.21 inches Hg (1023.0 mb)
Winds: from the SE (140 degrees) at 3 MPH (3 knots; 1.5 m/s)
Visibility: 0.19 miles (0.31 km)
Ceiling: at least 12,000 feet AGL
Clouds: scattered clouds at 200 feet AGL
Weather: FG  (fog)

METAR text: LIPZ 181320Z 13003KT 100V160 0200 R04R/1000D FG SCT001 06/06 Q1023 NOSIG
Conditions at: LIPZ (VENEZIA/TESSERA , IT) observed 1320 UTC 18 February 2019
Temperature: 6.0°C (43°F)
Dewpoint: 6.0°C (43°F) [RH = 100%]
Pressure (altimeter): 30.21 inches Hg (1023.0 mb)
Winds: from the SE (130 degrees) at 3 MPH (3 knots; 1.5 m/s)
Visibility: 0.12 miles (0.19 km)
Ceiling: at least 12,000 feet AGL
Clouds: scattered clouds at 100 feet AGL
Weather: FG  (fog)

METAR text: LIPZ 181250Z VRB02KT 0250 R04R/1100U FG SCT001 06/06 Q1023 NOSIG
Conditions at: LIPZ (VENEZIA/TESSERA , IT) observed 1250 UTC 18 February 2019
Temperature: 6.0°C (43°F)
Dewpoint: 6.0°C (43°F) [RH = 100%]
Pressure (altimeter): 30.21 inches Hg (1023.0 mb)
Winds: variable direction winds at 2 MPH (2 knots; 1.0 m/s)
Visibility: 0.16 miles (0.26 km)
Ceiling: at least 12,000 feet AGL
Clouds: scattered clouds at 100 feet AGL
Weather: FG  (fog)

METAR text: LIPZ 181220Z 13003KT 090V170 0250 R04R/0550D FG SCT001 06/05 Q1024 NOSIG
Conditions at: LIPZ (VENEZIA/TESSERA , IT) observed 1220 UTC 18 February 2019
Temperature: 6.0°C (43°F)
Dewpoint: 5.0°C (41°F) [RH = 93%]
Pressure (altimeter): 30.24 inches Hg (1024.0 mb)
Winds: from the SE (130 degrees) at 3 MPH (3 knots; 1.5 m/s)
Visibility: 0.16 miles (0.26 km)
Ceiling: at least 12,000 feet AGL
Clouds: scattered clouds at 100 feet AGL
Weather: FG  (fog)

METAR text: LIPZ 181150Z 11003KT 070V170 0250 R04R/0800U FG SCT001 05/05 Q1024 NOSIG
Conditions at: LIPZ (VENEZIA/TESSERA , IT) observed 1150 UTC 18 February 2019
Temperature: 5.0°C (41°F)
Dewpoint: 5.0°C (41°F) [RH = 100%]
Pressure (altimeter): 30.24 inches Hg (1024.0 mb)
Winds: from the ESE (110 degrees) at 3 MPH (3 knots; 1.5 m/s)
Visibility: 0.16 miles (0.26 km)
Ceiling: at least 12,000 feet AGL
Clouds: scattered clouds at 100 feet AGL
Weather: FG  (fog)

METAR text: LIPZ 181120Z VRB02KT 0250 R04R/0400N FG BKN001 05/05 Q1024 NOSIG
Conditions at: LIPZ (VENEZIA/TESSERA , IT) observed 1120 UTC 18 February 2019
Temperature: 5.0°C (41°F)
Dewpoint: 5.0°C (41°F) [RH = 100%]
Pressure (altimeter): 30.24 inches Hg (1024.0 mb)
Winds: variable direction winds at 2 MPH (2 knots; 1.0 m/s)
Visibility: 0.16 miles (0.26 km)
Ceiling: 100 feet AGL
Clouds: broken clouds at 100 feet AGL
Weather: FG  (fog)

METAR text: LIPZ 181050Z 09003KT 040V130 0200 R04R/0225D FG BKN001 04/04 Q1025 NOSIG
Conditions at: LIPZ (VENEZIA/TESSERA , IT) observed 1050 UTC 18 February 2019
Temperature: 4.0°C (39°F)
Dewpoint: 4.0°C (39°F) [RH = 100%]
Pressure (altimeter): 30.27 inches Hg (1025.0 mb)
Winds: from the E (90 degrees) at 3 MPH (3 knots; 1.5 m/s)
Visibility: 0.12 miles (0.19 km)
Ceiling: 100 feet AGL
Clouds: broken clouds at 100 feet AGL
Weather: FG  (fog)

METAR text: LIPZ 181020Z 08003KT 030V120 0200 R04R/0300N FG SCT001 04/03 Q1025 NOSIG
Conditions at: LIPZ (VENEZIA/TESSERA , IT) observed 1020 UTC 18 February 2019
Temperature: 4.0°C (39°F)
Dewpoint: 3.0°C (37°F) [RH = 93%]
Pressure (altimeter): 30.27 inches Hg (1025.0 mb)
Winds: from the E (80 degrees) at 3 MPH (3 knots; 1.5 m/s)
Visibility: 0.12 miles (0.19 km)
Ceiling: at least 12,000 feet AGL
Clouds: scattered clouds at 100 feet AGL
Weather: FG  (fog)

METAR text: LIPZ 180950Z 07004KT 0200 R04R/0225N FG SCT001 03/03 Q1025 NOSIG
Conditions at: LIPZ (VENEZIA/TESSERA , IT) observed 0950 UTC 18 February 2019
Temperature: 3.0°C (37°F)
Dewpoint: 3.0°C (37°F) [RH = 100%]
Pressure (altimeter): 30.27 inches Hg (1025.0 mb)
Winds: from the ENE (70 degrees) at 5 MPH (4 knots; 2.1 m/s)
Visibility: 0.12 miles (0.19 km)
Ceiling: at least 12,000 feet AGL
Clouds: scattered clouds at 100 feet AGL
Weather: FG  (fog)

METAR text: LIPZ 180920Z 09003KT 060V120 1300 0400SE R04R/0500D PRFG SCT001 02/02 Q1025 BECMG 2500 BR
Conditions at: LIPZ (VENEZIA/TESSERA , IT) observed 0920 UTC 18 February 2019
Temperature: 2.0°C (36°F)
Dewpoint: 2.0°C (36°F) [RH = 100%]
Pressure (altimeter): 30.27 inches Hg (1025.0 mb)
Winds: from the E (90 degrees) at 3 MPH (3 knots; 1.5 m/s)
Visibility: 0.81 miles (1.30 km)
Ceiling: at least 12,000 feet AGL
Clouds: scattered clouds at 100 feet AGL
Weather: PRFG  (partial fog)

METAR text: LIPZ 180850Z 05003KT 1300 R04R/1400U BR NSC 02/02 Q1025 BECMG 2500 BR
Conditions at: LIPZ (VENEZIA/TESSERA , IT) observed 0850 UTC 18 February 2019
Temperature: 2.0°C (36°F)
Dewpoint: 2.0°C (36°F) [RH = 100%]
Pressure (altimeter): 30.27 inches Hg (1025.0 mb)
Winds: from the NE (50 degrees) at 3 MPH (3 knots; 1.5 m/s)
Visibility: 0.81 miles (1.30 km)
Ceiling: at least 12,000 feet AGL
Clouds: sky clear below 12,000 feet AGL
Weather: BR  (mist)

METAR text: LIPZ 180820Z 04004KT 1000 R04R/P1500N BCFG NSC 02/01 Q1025 NOSIG
Conditions at: LIPZ (VENEZIA/TESSERA , IT) observed 0820 UTC 18 February 2019
Temperature: 2.0°C (36°F)
Dewpoint: 1.0°C (34°F) [RH = 93%]
Pressure (altimeter): 30.27 inches Hg (1025.0 mb)
Winds: from the NE (40 degrees) at 5 MPH (4 knots; 2.1 m/s)
Visibility: 0.62 miles (1.00 km)
Ceiling: at least 12,000 feet AGL
Clouds: sky clear below 12,000 feet AGL
Weather: BCFG  (patches of fog)

METAR text: LIPZ 180750Z 04004KT 1000 R04R/1100U BCFG NSC 00/00 Q1025 NOSIG
Conditions at: LIPZ (VENEZIA/TESSERA , IT) observed 0750 UTC 18 February 2019
Temperature: 0.0°C (32°F)
Dewpoint: 0.0°C (32°F) [RH = 100%]
Pressure (altimeter): 30.27 inches Hg (1025.0 mb)
Winds: from the NE (40 degrees) at 5 MPH (4 knots; 2.1 m/s)
Visibility: 0.62 miles (1.00 km)
Ceiling: at least 12,000 feet AGL
Clouds: sky clear below 12,000 feet AGL
Weather: BCFG  (patches of fog)

METAR text: LIPZ 180720Z 03004KT 0800 R04R/P1500N FG NSC 00/M00 Q1025 NOSIG
Conditions at: LIPZ (VENEZIA/TESSERA , IT) observed 0720 UTC 18 February 2019
Temperature: 0.0°C (32°F)
Dewpoint: 0.0°C (32°F) [RH = 100%]
Pressure (altimeter): 30.27 inches Hg (1025.0 mb)
Winds: from the NNE (30 degrees) at 5 MPH (4 knots; 2.1 m/s)
Visibility: 0.50 miles (0.80 km)
Ceiling: at least 12,000 feet AGL
Clouds: sky clear below 12,000 feet AGL
Weather: FG  (fog)

METAR text: LIPZ 180650Z 02005KT 1400 0700N R04R/P1500N PRFG NSC M00/M01 Q1025 NOSIG
Conditions at: LIPZ (VENEZIA/TESSERA , IT) observed 0650 UTC 18 February 2019
Temperature: 0.0°C (32°F)
Dewpoint: -1.0°C (30°F) [RH = 93%]
Pressure (altimeter): 30.27 inches Hg (1025.0 mb)
Winds: from the NNE (20 degrees) at 6 MPH (5 knots; 2.6 m/s)
Visibility: 0.87 miles (1.40 km)
Ceiling: at least 12,000 feet AGL
Clouds: sky clear below 12,000 feet AGL
Weather: PRFG  (partial fog)

METAR text: LIPZ 180620Z 01005KT 1100 0500N R04R/P1500N PRFG NSC 00/00 Q1024 NOSIG
Conditions at: LIPZ (VENEZIA/TESSERA , IT) observed 0620 UTC 18 February 2019
Temperature: 0.0°C (32°F)
Dewpoint: 0.0°C (32°F) [RH = 100%]
Pressure (altimeter): 30.24 inches Hg (1024.0 mb)
Winds: from the N (10 degrees) at 6 MPH (5 knots; 2.6 m/s)
Visibility: 0.68 miles (1.09 km)
Ceiling: at least 12,000 feet AGL
Clouds: sky clear below 12,000 feet AGL
Weather: PRFG  (partial fog)

METAR text: LIPZ 180550Z 02004KT 0200 R04R/0300D FG NSC 00/M00 Q1024 NOSIG
Conditions at: LIPZ (VENEZIA/TESSERA , IT) observed 0550 UTC 18 February 2019
Temperature: 0.0°C (32°F)
Dewpoint: 0.0°C (32°F) [RH = 100%]
Pressure (altimeter): 30.24 inches Hg (1024.0 mb)
Winds: from the NNE (20 degrees) at 5 MPH (4 knots; 2.1 m/s)
Visibility: 0.12 miles (0.19 km)
Ceiling: at least 12,000 feet AGL
Clouds: sky clear below 12,000 feet AGL
Weather: FG  (fog)

METAR text: LIPZ 180520Z 01004KT 0400 R04R/P1500N FG NSC 02/01 Q1024 NOSIG
Conditions at: LIPZ (VENEZIA/TESSERA , IT) observed 0520 UTC 18 February 2019
Temperature: 2.0°C (36°F)
Dewpoint: 1.0°C (34°F) [RH = 93%]
Pressure (altimeter): 30.24 inches Hg (1024.0 mb)
Winds: from the N (10 degrees) at 5 MPH (4 knots; 2.1 m/s)
Visibility: 0.25 miles (0.40 km)
Ceiling: at least 12,000 feet AGL
Clouds: sky clear below 12,000 feet AGL
Weather: FG  (fog)

METAR text: LIPZ 180450Z VRB02KT 1500 BR NSC 02/01 Q1024 NOSIG
Conditions at: LIPZ (VENEZIA/TESSERA , IT) observed 0450 UTC 18 February 2019
Temperature: 2.0°C (36°F)
Dewpoint: 1.0°C (34°F) [RH = 93%]
Pressure (altimeter): 30.24 inches Hg (1024.0 mb)
Winds: variable direction winds at 2 MPH (2 knots; 1.0 m/s)
Visibility: 0.93 miles (1.50 km)
Ceiling: at least 12,000 feet AGL
Clouds: sky clear below 12,000 feet AGL
Weather: BR  (mist)

METAR text: LIPZ 180420Z 31004KT 1500 BR NSC 02/01 Q1024 NOSIG
Conditions at: LIPZ (VENEZIA/TESSERA , IT) observed 0420 UTC 18 February 2019
Temperature: 2.0°C (36°F)
Dewpoint: 1.0°C (34°F) [RH = 93%]
Pressure (altimeter): 30.24 inches Hg (1024.0 mb)
Winds: from the NW (310 degrees) at 5 MPH (4 knots; 2.1 m/s)
Visibility: 0.93 miles (1.50 km)
Ceiling: at least 12,000 feet AGL
Clouds: sky clear below 12,000 feet AGL
Weather: BR  (mist)

METAR text: LIPZ 180350Z 32003KT 2000 BR NSC 02/01 Q1024 BECMG 1500 BCFG
Conditions at: LIPZ (VENEZIA/TESSERA , IT) observed 0350 UTC 18 February 2019
Temperature: 2.0°C (36°F)
Dewpoint: 1.0°C (34°F) [RH = 93%]
Pressure (altimeter): 30.24 inches Hg (1024.0 mb)
Winds: from the NW (320 degrees) at 3 MPH (3 knots; 1.5 m/s)
Visibility: 1.24 miles (2.00 km)
Ceiling: at least 12,000 feet AGL
Clouds: sky clear below 12,000 feet AGL
Weather: BR  (mist)

METAR text: LIPZ 180320Z 34003KT 300V360 2000 BR NSC 02/01 Q1024 BECMG 1500 BCFG
Conditions at: LIPZ (VENEZIA/TESSERA , IT) observed 0320 UTC 18 February 2019
Temperature: 2.0°C (36°F)
Dewpoint: 1.0°C (34°F) [RH = 93%]
Pressure (altimeter): 30.24 inches Hg (1024.0 mb)
Winds: from the NNW (340 degrees) at 3 MPH (3 knots; 1.5 m/s)
Visibility: 1.24 miles (2.00 km)
Ceiling: at least 12,000 feet AGL
Clouds: sky clear below 12,000 feet AGL
Weather: BR  (mist)

METAR text: LIPZ 180250Z 36004KT 2000 BR NSC 02/02 Q1024 BECMG 1500 BCFG
Conditions at: LIPZ (VENEZIA/TESSERA , IT) observed 0250 UTC 18 February 2019
Temperature: 2.0°C (36°F)
Dewpoint: 2.0°C (36°F) [RH = 100%]
Pressure (altimeter): 30.24 inches Hg (1024.0 mb)
Winds: from the N (360 degrees) at 5 MPH (4 knots; 2.1 m/s)
Visibility: 1.24 miles (2.00 km)
Ceiling: at least 12,000 feet AGL
Clouds: sky clear below 12,000 feet AGL
Weather: BR  (mist)

METAR text: LIPZ 180220Z 01004KT 2000 BR NSC 02/01 Q1025 BECMG 1500 BCFG
Conditions at: LIPZ (VENEZIA/TESSERA , IT) observed 0220 UTC 18 February 2019
Temperature: 2.0°C (36°F)
Dewpoint: 1.0°C (34°F) [RH = 93%]
Pressure (altimeter): 30.27 inches Hg (1025.0 mb)
Winds: from the N (10 degrees) at 5 MPH (4 knots; 2.1 m/s)
Visibility: 1.24 miles (2.00 km)
Ceiling: at least 12,000 feet AGL
Clouds: sky clear below 12,000 feet AGL
Weather: BR  (mist)

METAR text: LIPZ 180150Z 03005KT 2000 BR NSC 04/03 Q1025 BECMG 1500 BCFG
Conditions at: LIPZ (VENEZIA/TESSERA , IT) observed 0150 UTC 18 February 2019
Temperature: 4.0°C (39°F)
Dewpoint: 3.0°C (37°F) [RH = 93%]
Pressure (altimeter): 30.27 inches Hg (1025.0 mb)
Winds: from the NNE (30 degrees) at 6 MPH (5 knots; 2.6 m/s)
Visibility: 1.24 miles (2.00 km)
Ceiling: at least 12,000 feet AGL
Clouds: sky clear below 12,000 feet AGL
Weather: BR  (mist)

METAR text: LIPZ 180120Z 04004KT 2000 BR NSC 03/02 Q1025 BECMG 1500 BCFG
Conditions at: LIPZ (VENEZIA/TESSERA , IT) observed 0120 UTC 18 February 2019
Temperature: 3.0°C (37°F)
Dewpoint: 2.0°C (36°F) [RH = 93%]
Pressure (altimeter): 30.27 inches Hg (1025.0 mb)
Winds: from the NE (40 degrees) at 5 MPH (4 knots; 2.1 m/s)
Visibility: 1.24 miles (2.00 km)
Ceiling: at least 12,000 feet AGL
Clouds: sky clear below 12,000 feet AGL
Weather: BR  (mist)

METAR text: LIPZ 180050Z 04003KT 2000 BR NSC 04/03 Q1025 BECMG 1500 BCFG
Conditions at: LIPZ (VENEZIA/TESSERA , IT) observed 0050 UTC 18 February 2019
Temperature: 4.0°C (39°F)
Dewpoint: 3.0°C (37°F) [RH = 93%]
Pressure (altimeter): 30.27 inches Hg (1025.0 mb)
Winds: from the NE (40 degrees) at 3 MPH (3 knots; 1.5 m/s)
Visibility: 1.24 miles (2.00 km)
Ceiling: at least 12,000 feet AGL
Clouds: sky clear below 12,000 feet AGL
Weather: BR  (mist)

METAR text: LIPZ 180020Z 01003KT 2000 BR NSC 04/03 Q1025 BECMG 1500 BCFG
Conditions at: LIPZ (VENEZIA/TESSERA , IT) observed 0020 UTC 18 February 2019
Temperature: 4.0°C (39°F)
Dewpoint: 3.0°C (37°F) [RH = 93%]
Pressure (altimeter): 30.27 inches Hg (1025.0 mb)
Winds: from the N (10 degrees) at 3 MPH (3 knots; 1.5 m/s)
Visibility: 1.24 miles (2.00 km)
Ceiling: at least 12,000 feet AGL
Clouds: sky clear below 12,000 feet AGL
Weather: BR  (mist)

METAR text: LIPZ 172350Z 36002KT 2000 BR NSC 04/03 Q1025 BECMG 1500 BCFG
Conditions at: LIPZ (VENEZIA/TESSERA , IT) observed 2350 UTC 17 February 2019
Temperature: 4.0°C (39°F)
Dewpoint: 3.0°C (37°F) [RH = 93%]
Pressure (altimeter): 30.27 inches Hg (1025.0 mb)
Winds: from the N (360 degrees) at 2 MPH (2 knots; 1.0 m/s)
Visibility: 1.24 miles (2.00 km)
Ceiling: at least 12,000 feet AGL
Clouds: sky clear below 12,000 feet AGL
Weather: BR  (mist)

METAR text: LIPZ 172320Z 35002KT 2000 BR NSC 04/03 Q1025 BECMG 1500 BCFG
Conditions at: LIPZ (VENEZIA/TESSERA , IT) observed 2320 UTC 17 February 2019
Temperature: 4.0°C (39°F)
Dewpoint: 3.0°C (37°F) [RH = 93%]
Pressure (altimeter): 30.27 inches Hg (1025.0 mb)
Winds: from the N (350 degrees) at 2 MPH (2 knots; 1.0 m/s)
Visibility: 1.24 miles (2.00 km)
Ceiling: at least 12,000 feet AGL
Clouds: sky clear below 12,000 feet AGL
Weather: BR  (mist)

METAR text: LIPZ 172250Z VRB01KT 2000 BR NSC 04/03 Q1025 BECMG 1500 BCFG
Conditions at: LIPZ (VENEZIA/TESSERA , IT) observed 2250 UTC 17 February 2019
Temperature: 4.0°C (39°F)
Dewpoint: 3.0°C (37°F) [RH = 93%]
Pressure (altimeter): 30.27 inches Hg (1025.0 mb)
Winds: variable direction winds at 1 MPH (1 knots; 0.5 m/s)
Visibility: 1.24 miles (2.00 km)
Ceiling: at least 12,000 feet AGL
Clouds: sky clear below 12,000 feet AGL
Weather: BR  (mist)

METAR text: LIPZ 172220Z VRB02KT 3000 BR NSC 05/04 Q1025 BECMG 1500 BCFG
Conditions at: LIPZ (VENEZIA/TESSERA , IT) observed 2220 UTC 17 February 2019
Temperature: 5.0°C (41°F)
Dewpoint: 4.0°C (39°F) [RH = 93%]
Pressure (altimeter): 30.27 inches Hg (1025.0 mb)
Winds: variable direction winds at 2 MPH (2 knots; 1.0 m/s)
Visibility: 1.86 miles (2.99 km)
Ceiling: at least 12,000 feet AGL
Clouds: sky clear below 12,000 feet AGL
Weather: BR  (mist)

METAR text: LIPZ 172150Z 01002KT 3000 BR NSC 05/04 Q1025 BECMG 1500 BCFG
Conditions at: LIPZ (VENEZIA/TESSERA , IT) observed 2150 UTC 17 February 2019
Temperature: 5.0°C (41°F)
Dewpoint: 4.0°C (39°F) [RH = 93%]
Pressure (altimeter): 30.27 inches Hg (1025.0 mb)
Winds: from the N (10 degrees) at 2 MPH (2 knots; 1.0 m/s)
Visibility: 1.86 miles (2.99 km)
Ceiling: at least 12,000 feet AGL
Clouds: sky clear below 12,000 feet AGL
Weather: BR  (mist)

METAR text: LIPZ 172120Z VRB01KT 3000 BR NSC 07/06 Q1025 BECMG 1500 BCFG
Conditions at: LIPZ (VENEZIA/TESSERA , IT) observed 2120 UTC 17 February 2019
Temperature: 7.0°C (45°F)
Dewpoint: 6.0°C (43°F) [RH = 93%]
Pressure (altimeter): 30.27 inches Hg (1025.0 mb)
Winds: variable direction winds at 1 MPH (1 knots; 0.5 m/s)
Visibility: 1.86 miles (2.99 km)
Ceiling: at least 12,000 feet AGL
Clouds: sky clear below 12,000 feet AGL
Weather: BR  (mist)

METAR text: LIPZ 172050Z VRB01KT 4000 BR NSC 06/06 Q1025 NOSIG
Conditions at: LIPZ (VENEZIA/TESSERA , IT) observed 2050 UTC 17 February 2019
Temperature: 6.0°C (43°F)
Dewpoint: 6.0°C (43°F) [RH = 100%]
Pressure (altimeter): 30.27 inches Hg (1025.0 mb)
Winds: variable direction winds at 1 MPH (1 knots; 0.5 m/s)
Visibility: 2.49 miles (4.01 km)
Ceiling: at least 12,000 feet AGL
Clouds: sky clear below 12,000 feet AGL
Weather: BR  (mist)

METAR text: LIPZ 172020Z 20003KT 5000 BR NSC 06/05 Q1025 NOSIG
Conditions at: LIPZ (VENEZIA/TESSERA , IT) observed 2020 UTC 17 February 2019
Temperature: 6.0°C (43°F)
Dewpoint: 5.0°C (41°F) [RH = 93%]
Pressure (altimeter): 30.27 inches Hg (1025.0 mb)
Winds: from the SSW (200 degrees) at 3 MPH (3 knots; 1.5 m/s)
Visibility: 3 miles ( 5 km)
Ceiling: at least 12,000 feet AGL
Clouds: sky clear below 12,000 feet AGL
Weather: BR  (mist)

METAR text: LIPZ 171950Z 18002KT 6000 NSC 07/05 Q1025 NOSIG
Conditions at: LIPZ (VENEZIA/TESSERA , IT) observed 1950 UTC 17 February 2019
Temperature: 7.0°C (45°F)
Dewpoint: 5.0°C (41°F) [RH = 87%]
Pressure (altimeter): 30.27 inches Hg (1025.0 mb)
Winds: from the S (180 degrees) at 2 MPH (2 knots; 1.0 m/s)
Visibility: 4 miles ( 6 km)
Ceiling: at least 12,000 feet AGL
Clouds: sky clear below 12,000 feet AGL
Weather: no significant weather observed at this time

METAR text: LIPZ 171920Z 15003KT 6000 NSC 06/05 Q1025 NOSIG
Conditions at: LIPZ (VENEZIA/TESSERA , IT) observed 1920 UTC 17 February 2019
Temperature: 6.0°C (43°F)
Dewpoint: 5.0°C (41°F) [RH = 93%]
Pressure (altimeter): 30.27 inches Hg (1025.0 mb)
Winds: from the SSE (150 degrees) at 3 MPH (3 knots; 1.5 m/s)
Visibility: 4 miles ( 6 km)
Ceiling: at least 12,000 feet AGL
Clouds: sky clear below 12,000 feet AGL
Weather: no significant weather observed at this time

METAR text: LIPZ 171850Z 14004KT 6000 NSC 07/05 Q1025 NOSIG
Conditions at: LIPZ (VENEZIA/TESSERA , IT) observed 1850 UTC 17 February 2019
Temperature: 7.0°C (45°F)
Dewpoint: 5.0°C (41°F) [RH = 87%]
Pressure (altimeter): 30.27 inches Hg (1025.0 mb)
Winds: from the SE (140 degrees) at 5 MPH (4 knots; 2.1 m/s)
Visibility: 4 miles ( 6 km)
Ceiling: at least 12,000 feet AGL
Clouds: sky clear below 12,000 feet AGL
Weather: no significant weather observed at this time

Forecast for: LIPZ (VENEZIA/TESSERA , IT)
Text: TAF LIPZ 190500Z 1906/2012 VRB04KT 0200 FG OVC001
Forecast period: 0600 UTC 19 February 2019 to 1200 UTC 20 February 2019
Forecast type: FROM: standard forecast or significant change
Winds: variable direction winds at 5 MPH (4 knots; 2.1 m/s)
Visibility: 0.12 miles (0.19 km)
Ceiling: 100 feet AGL
Clouds: overcast cloud deck at 100 feet AGL
Weather: FG  (fog)
Text: TEMPO 1911/1915 1200 BCFG
Forecast period: 1100 to 1500 UTC 19 February 2019
Forecast type: TEMPORARY: The following changes expected for less than half the time period
Visibility: 0.75 miles (1.21 km)
Ceiling: unknown
Clouds: missing
Weather: BCFG  (patches of fog)